createdAt,value
2018-06-30T00:00:25.237Z,21.33
2018-06-30T00:02:54.389Z,15.40
2018-06-30T00:05:23.516Z,11.93
2018-06-30T00:07:52.759Z,12.33
2018-06-30T00:10:26.911Z,10.63
2018-06-30T00:12:56.051Z,13.93
2018-06-30T00:15:25.241Z,11.50
2018-06-30T00:17:54.512Z,8.10
2018-06-30T00:20:23.952Z,9.10
2018-06-30T00:22:53.637Z,9.13
2018-06-30T00:25:22.854Z,11.60
2018-06-30T00:27:54.977Z,8.97
2018-06-30T00:30:25.378Z,9.30
2018-06-30T00:32:55.374Z,11.73
2018-06-30T00:35:24.499Z,8.03
2018-06-30T00:37:53.690Z,10.93
2018-06-30T00:40:22.829Z,10.17
2018-06-30T00:42:52.008Z,12.23
2018-06-30T00:45:21.141Z,11.03
2018-06-30T00:47:50.272Z,9.27
2018-06-30T00:50:19.391Z,12.10
2018-06-30T00:52:48.563Z,9.63
2018-06-30T00:55:17.712Z,9.20
2018-06-30T00:57:47.620Z,7.50
2018-06-30T01:00:16.823Z,7.83
2018-06-30T01:02:46.689Z,8.73
2018-06-30T01:05:15.876Z,9.03
2018-06-30T01:07:45.061Z,10.87
2018-06-30T01:10:13.828Z,6.30
2018-06-30T01:12:42.941Z,6.47
2018-06-30T01:15:11.727Z,7.23
2018-06-30T01:17:40.807Z,8.43
2018-06-30T01:20:10.061Z,8.80
2018-06-30T01:22:39.328Z,6.47
2018-06-30T01:25:08.442Z,7.03
2018-06-30T01:27:38.285Z,7.70
2018-06-30T01:30:08.374Z,6.70
2018-06-30T01:32:37.522Z,6.87
2018-06-30T01:35:06.751Z,6.77
2018-06-30T01:37:35.967Z,7.40
2018-06-30T01:40:05.508Z,9.33
2018-06-30T01:42:34.864Z,6.83
2018-06-30T01:45:04.657Z,8.70
2018-06-30T01:47:33.832Z,7.87
2018-06-30T01:50:03.050Z,8.47
2018-06-30T01:52:32.214Z,7.57
2018-06-30T01:55:01.432Z,5.73
2018-06-30T01:57:30.595Z,6.33
2018-06-30T02:00:00.181Z,5.63
2018-06-30T02:02:29.383Z,4.63
2018-06-30T02:04:58.528Z,6.17
2018-06-30T02:07:27.655Z,6.40
2018-06-30T02:09:56.840Z,3.03
2018-06-30T02:12:26.039Z,3.30
2018-06-30T02:14:55.214Z,2.20
2018-06-30T02:17:24.365Z,3.27
2018-06-30T02:19:53.550Z,5.97
2018-06-30T02:22:23.298Z,5.27
2018-06-30T02:24:52.448Z,4.03
2018-06-30T02:27:21.601Z,4.20
2018-06-30T02:29:50.778Z,2.90
2018-06-30T02:32:19.908Z,3.53
2018-06-30T02:34:49.051Z,3.50
2018-06-30T02:37:18.224Z,3.23
2018-06-30T02:39:47.369Z,3.57
2018-06-30T02:42:16.523Z,4.67
2018-06-30T02:44:45.651Z,5.40
2018-06-30T02:47:14.787Z,3.03
2018-06-30T02:49:43.902Z,2.50
2018-06-30T02:52:13.836Z,5.23
2018-06-30T02:54:43.064Z,4.23
2018-06-30T02:57:12.221Z,3.90
2018-06-30T02:59:41.361Z,2.53
2018-06-30T03:02:10.628Z,1.83
2018-06-30T03:04:39.948Z,4.90
2018-06-30T03:07:09.107Z,2.20
2018-06-30T03:09:38.429Z,3.70
2018-06-30T03:12:07.629Z,4.17
2018-06-30T03:14:36.784Z,2.93
2018-06-30T03:17:06.077Z,6.33
2018-06-30T03:19:35.248Z,4.07
2018-06-30T03:22:04.131Z,1.30
2018-06-30T03:24:33.145Z,3.83
2018-06-30T03:27:02.331Z,3.03
2018-06-30T03:29:31.464Z,5.53
2018-06-30T03:32:00.756Z,2.80
2018-06-30T03:34:29.885Z,4.00
2018-06-30T03:36:59.039Z,4.67
2018-06-30T03:39:28.146Z,3.90
2018-06-30T03:41:57.584Z,3.83
2018-06-30T03:44:26.801Z,3.53
2018-06-30T03:46:55.964Z,3.03
2018-06-30T03:49:25.149Z,3.13
2018-06-30T03:51:54.342Z,1.90
2018-06-30T03:54:23.543Z,3.97
2018-06-30T03:56:52.703Z,2.57
2018-06-30T03:59:21.523Z,2.93
2018-06-30T04:01:50.591Z,4.27
2018-06-30T04:04:19.744Z,2.23
2018-06-30T04:06:48.887Z,4.27
2018-06-30T04:09:18.025Z,5.37
2018-06-30T04:11:47.795Z,4.03
2018-06-30T04:14:16.931Z,4.53
2018-06-30T04:16:46.165Z,3.67
2018-06-30T04:19:16.121Z,2.73
2018-06-30T04:21:46.455Z,4.73
2018-06-30T04:24:15.636Z,3.23
2018-06-30T04:26:44.907Z,4.83
2018-06-30T04:29:14.541Z,1.93
2018-06-30T04:31:43.359Z,2.43
2018-06-30T04:34:12.434Z,2.60
2018-06-30T04:36:41.582Z,5.33
2018-06-30T04:39:10.792Z,4.30
2018-06-30T04:41:39.947Z,3.13
2018-06-30T04:44:09.127Z,2.63
2018-06-30T04:46:38.063Z,3.50
2018-06-30T04:49:07.178Z,3.43
2018-06-30T04:51:36.309Z,3.37
2018-06-30T04:54:05.671Z,3.47
2018-06-30T04:56:34.866Z,5.10
2018-06-30T04:59:04.240Z,5.07
2018-06-30T05:01:33.401Z,3.60
2018-06-30T05:04:02.804Z,5.07
2018-06-30T05:06:31.948Z,3.87
2018-06-30T05:09:01.100Z,5.37
2018-06-30T05:11:30.261Z,6.93
2018-06-30T05:13:59.522Z,3.20
2018-06-30T05:16:28.673Z,3.63
2018-06-30T05:18:57.902Z,3.93
2018-06-30T05:21:27.113Z,3.53
2018-06-30T05:23:56.436Z,6.70
2018-06-30T05:26:25.560Z,7.87
2018-06-30T05:28:54.749Z,5.50
2018-06-30T05:31:24.056Z,5.20
2018-06-30T05:33:53.260Z,6.40
2018-06-30T05:36:22.449Z,6.47
2018-06-30T05:38:51.775Z,5.87
2018-06-30T05:41:20.942Z,4.50
2018-06-30T05:43:52.536Z,5.57
2018-06-30T05:46:21.730Z,3.83
2018-06-30T05:48:50.961Z,3.77
2018-06-30T05:51:20.130Z,3.43
2018-06-30T05:53:49.247Z,6.20
2018-06-30T05:56:18.407Z,5.80
2018-06-30T05:58:47.520Z,3.17
2018-06-30T06:01:16.730Z,4.07
2018-06-30T06:03:45.887Z,4.77
2018-06-30T06:06:15.084Z,4.90
2018-06-30T06:08:44.382Z,3.43
2018-06-30T06:11:13.512Z,4.40
2018-06-30T06:13:42.709Z,4.30
2018-06-30T06:16:11.837Z,3.60
2018-06-30T06:18:41.034Z,3.43
2018-06-30T06:21:10.177Z,2.30
2018-06-30T06:23:39.410Z,7.37
2018-06-30T06:26:08.571Z,2.50
2018-06-30T06:28:37.932Z,1.83
2018-06-30T06:31:06.808Z,3.10
2018-06-30T06:33:35.845Z,2.20
2018-06-30T06:36:05.108Z,1.63
2018-06-30T06:38:34.305Z,3.83
2018-06-30T06:41:04.280Z,2.30
2018-06-30T06:43:33.464Z,1.73
2018-06-30T06:46:02.633Z,3.30
2018-06-30T06:48:31.933Z,3.90
2018-06-30T06:51:01.159Z,2.27
2018-06-30T06:53:30.423Z,2.70
2018-06-30T06:55:59.588Z,1.63
2018-06-30T06:58:28.794Z,2.60
2018-06-30T07:00:57.986Z,2.10
2018-06-30T07:03:27.168Z,4.40
2018-06-30T07:05:56.297Z,2.53
2018-06-30T07:08:25.405Z,2.37
2018-06-30T07:10:54.552Z,3.43
2018-06-30T07:13:23.820Z,3.67
2018-06-30T07:15:53.001Z,1.87
2018-06-30T07:18:22.231Z,1.63
2018-06-30T07:20:51.497Z,2.57
2018-06-30T07:23:20.623Z,2.37
2018-06-30T07:25:50.670Z,3.43
2018-06-30T07:28:19.830Z,1.83
2018-06-30T07:30:49.033Z,3.00
2018-06-30T07:33:18.304Z,3.17
2018-06-30T07:35:47.463Z,3.20
2018-06-30T07:38:16.669Z,2.23
2018-06-30T07:40:46.948Z,1.43
2018-06-30T07:43:16.199Z,4.60
2018-06-30T07:45:45.284Z,2.70
2018-06-30T07:48:14.597Z,1.53
2018-06-30T07:50:44.755Z,3.33
2018-06-30T07:53:13.891Z,2.63
2018-06-30T07:55:43.065Z,1.50
2018-06-30T07:58:12.190Z,2.60
2018-06-30T08:00:41.357Z,1.43
2018-06-30T08:03:10.515Z,2.80
2018-06-30T08:05:39.712Z,1.90
2018-06-30T08:08:09.540Z,6.53
2018-06-30T08:10:38.566Z,2.10
2018-06-30T08:13:07.736Z,3.23
2018-06-30T08:15:36.986Z,1.63
2018-06-30T08:18:06.315Z,1.40
2018-06-30T08:20:35.649Z,2.37
2018-06-30T08:23:04.937Z,1.83
2018-06-30T08:25:34.143Z,3.10
2018-06-30T08:28:03.353Z,1.90
2018-06-30T08:30:32.449Z,3.90
2018-06-30T08:33:01.889Z,1.23
2018-06-30T08:35:31.048Z,3.00
2018-06-30T08:38:01.328Z,3.43
2018-06-30T08:40:30.977Z,2.20
2018-06-30T08:43:00.205Z,1.63
2018-06-30T08:45:29.408Z,1.70
2018-06-30T08:47:58.558Z,2.33
2018-06-30T08:50:27.900Z,1.33
2018-06-30T08:52:57.071Z,1.17
2018-06-30T08:55:25.963Z,3.23
2018-06-30T08:57:54.961Z,1.57
2018-06-30T09:00:24.132Z,4.63
2018-06-30T09:02:53.256Z,1.60
2018-06-30T09:05:22.408Z,2.43
2018-06-30T09:07:51.557Z,1.07
2018-06-30T09:10:20.774Z,1.67
2018-06-30T09:12:49.935Z,1.27
2018-06-30T09:15:19.071Z,1.40
2018-06-30T09:17:48.244Z,1.10
2018-06-30T09:20:17.464Z,2.43
2018-06-30T09:22:46.685Z,1.63
2018-06-30T09:25:15.884Z,2.93
2018-06-30T09:27:45.108Z,2.93
2018-06-30T09:30:14.334Z,1.30
2018-06-30T09:32:43.519Z,1.57
2018-06-30T09:35:12.709Z,1.63
2018-06-30T09:37:42.600Z,1.20
2018-06-30T09:40:13.260Z,1.10
2018-06-30T09:42:42.441Z,1.07
2018-06-30T09:45:11.604Z,1.73
2018-06-30T09:47:40.886Z,0.93
2018-06-30T09:50:10.062Z,2.50
2018-06-30T09:52:39.305Z,1.20
2018-06-30T09:55:08.697Z,1.77
2018-06-30T09:57:38.030Z,2.40
2018-06-30T10:00:08.193Z,3.70
2018-06-30T10:02:37.360Z,2.47
2018-06-30T10:05:06.737Z,1.13
2018-06-30T10:07:35.984Z,3.73
2018-06-30T10:10:05.495Z,2.50
2018-06-30T10:12:34.619Z,1.63
2018-06-30T10:15:03.949Z,3.83
2018-06-30T10:17:33.129Z,2.23
2018-06-30T10:20:02.380Z,4.13
2018-06-30T10:22:31.601Z,3.77
2018-06-30T10:25:00.770Z,0.77
2018-06-30T10:27:29.986Z,0.90
2018-06-30T10:29:59.185Z,2.57
2018-06-30T10:32:28.313Z,2.87
2018-06-30T10:34:57.470Z,0.80
2018-06-30T10:37:26.736Z,2.87
2018-06-30T10:39:55.864Z,0.90
2018-06-30T10:42:25.049Z,1.23
2018-06-30T10:44:54.270Z,1.70
2018-06-30T10:47:23.472Z,1.33
2018-06-30T10:49:52.741Z,2.63
2018-06-30T10:52:21.942Z,0.80
2018-06-30T10:54:57.623Z,1.23
2018-06-30T10:57:27.896Z,2.60
2018-06-30T10:59:57.025Z,1.97
2018-06-30T11:02:26.210Z,2.23
2018-06-30T11:04:55.420Z,1.67
2018-06-30T11:07:24.692Z,1.90
2018-06-30T11:09:53.992Z,1.33
2018-06-30T11:12:23.167Z,1.50
2018-06-30T11:14:52.407Z,2.30
2018-06-30T11:17:21.587Z,2.43
2018-06-30T11:19:50.792Z,1.53
2018-06-30T11:22:20.230Z,1.43
2018-06-30T11:24:49.394Z,0.70
2018-06-30T11:27:18.583Z,0.80
2018-06-30T11:29:47.717Z,0.70
2018-06-30T11:32:17.066Z,0.60
2018-06-30T11:34:46.254Z,0.97
2018-06-30T11:37:15.419Z,0.93
2018-06-30T11:39:44.737Z,2.20
2018-06-30T11:42:13.951Z,1.77
2018-06-30T11:44:43.149Z,1.80
2018-06-30T11:47:12.329Z,2.97
2018-06-30T11:49:41.508Z,1.83
2018-06-30T11:52:10.875Z,0.77
2018-06-30T11:54:40.095Z,0.80
2018-06-30T11:57:09.294Z,2.47
2018-06-30T11:59:38.724Z,0.80
2018-06-30T12:02:08.210Z,0.80
2018-06-30T12:04:37.316Z,2.67
2018-06-30T12:07:07.312Z,0.67
2018-06-30T12:09:36.605Z,0.70
2018-06-30T12:12:05.829Z,0.70
2018-06-30T12:14:35.080Z,3.73
2018-06-30T12:17:04.669Z,0.80
2018-06-30T12:19:34.227Z,0.80
2018-06-30T12:22:03.519Z,0.60
2018-06-30T12:24:39.952Z,2.73
2018-06-30T12:27:09.688Z,0.97
2018-06-30T12:29:38.887Z,2.13
2018-06-30T12:32:08.148Z,1.67
2018-06-30T12:34:37.311Z,1.10
2018-06-30T12:37:06.760Z,1.03
2018-06-30T12:39:35.951Z,1.03
2018-06-30T12:42:05.277Z,1.77
2018-06-30T12:44:34.491Z,0.70
2018-06-30T12:47:03.688Z,1.60
2018-06-30T12:49:32.949Z,1.13
2018-06-30T12:52:02.208Z,0.80
2018-06-30T12:54:31.432Z,2.70
2018-06-30T12:57:00.584Z,1.00
2018-06-30T12:59:29.790Z,2.90
2018-06-30T13:01:59.010Z,0.97
2018-06-30T13:04:28.316Z,2.97
2018-06-30T13:06:57.471Z,0.80
2018-06-30T13:09:26.729Z,1.75
2018-06-30T13:11:55.941Z,1.60
2018-06-30T13:14:25.167Z,0.80
2018-06-30T13:16:54.455Z,3.10
2018-06-30T13:19:23.612Z,2.27
2018-06-30T13:21:52.913Z,1.67
2018-06-30T13:24:22.095Z,3.50
2018-06-30T13:26:51.352Z,0.70
2018-06-30T13:29:20.590Z,0.67
2018-06-30T13:31:49.803Z,1.47
2018-06-30T13:34:18.958Z,2.70
2018-06-30T13:36:48.231Z,1.35
2018-06-30T13:39:17.397Z,1.13
2018-06-30T13:41:46.644Z,1.47
2018-06-30T13:44:15.816Z,0.78
2018-06-30T13:46:45.088Z,1.00
2018-06-30T13:49:14.258Z,2.53
2018-06-30T13:51:43.442Z,1.20
2018-06-30T13:54:12.762Z,2.15
2018-06-30T13:56:41.945Z,1.85
2018-06-30T13:59:11.147Z,2.08
2018-06-30T14:01:40.360Z,0.98
2018-06-30T14:04:09.601Z,2.35
2018-06-30T14:06:38.842Z,2.10
2018-06-30T14:09:09.836Z,2.35
2018-06-30T14:11:39.036Z,1.10
2018-06-30T14:14:08.781Z,0.70
2018-06-30T14:16:38.001Z,2.83
2018-06-30T14:19:07.312Z,1.37
2018-06-30T14:21:36.446Z,1.53
2018-06-30T14:24:05.868Z,0.80
2018-06-30T14:26:35.104Z,2.30
2018-06-30T14:29:04.013Z,1.47
2018-06-30T14:31:33.107Z,0.80
2018-06-30T14:34:02.332Z,2.70
2018-06-30T14:36:31.475Z,2.83
2018-06-30T14:39:00.768Z,2.08
2018-06-30T14:41:29.888Z,1.55
2018-06-30T14:43:59.212Z,0.80
2018-06-30T14:46:28.496Z,3.20
2018-06-30T14:48:57.692Z,1.60
2018-06-30T14:51:26.880Z,0.93
2018-06-30T14:53:56.061Z,2.53
2018-06-30T14:56:25.408Z,1.10
2018-06-30T14:58:54.566Z,2.30
2018-06-30T15:01:23.880Z,0.97
2018-06-30T15:03:53.029Z,1.63
2018-06-30T15:06:22.201Z,1.83
2018-06-30T15:08:51.437Z,4.20
2018-06-30T15:11:20.656Z,2.63
2018-06-30T15:13:52.770Z,2.83
2018-06-30T15:16:21.976Z,1.60
2018-06-30T15:18:51.214Z,2.33
2018-06-30T15:21:20.433Z,0.70
2018-06-30T15:23:49.607Z,2.80
2018-06-30T15:26:18.851Z,3.50
2018-06-30T15:28:48.008Z,2.70
2018-06-30T15:31:17.199Z,3.67
2018-06-30T15:33:46.397Z,2.00
2018-06-30T15:36:15.575Z,2.23
2018-06-30T15:38:44.854Z,2.27
2018-06-30T15:41:14.011Z,2.40
2018-06-30T15:43:43.218Z,3.60
2018-06-30T15:46:12.513Z,2.37
2018-06-30T15:48:41.776Z,2.13
2018-06-30T15:51:11.105Z,4.53
2018-06-30T15:53:40.296Z,3.40
2018-06-30T15:56:09.545Z,2.13
2018-06-30T15:58:38.729Z,3.60
2018-06-30T16:01:08.598Z,4.67
2018-06-30T16:03:37.820Z,3.50
2018-06-30T16:06:07.265Z,6.60
2018-06-30T16:08:36.521Z,6.77
2018-06-30T16:11:21.458Z,6.60
2018-06-30T16:13:50.631Z,2.13
2018-06-30T16:16:19.886Z,4.10
2018-06-30T16:18:49.101Z,3.17
2018-06-30T16:21:18.414Z,7.13
2018-06-30T16:23:47.553Z,3.93
2018-06-30T16:26:16.795Z,3.43
2018-06-30T16:28:48.901Z,3.33
2018-06-30T16:31:18.308Z,5.83
2018-06-30T16:33:50.392Z,3.90
2018-06-30T16:36:19.630Z,2.10
2018-06-30T16:38:48.836Z,2.00
2018-06-30T16:41:17.970Z,4.77
2018-06-30T16:43:47.234Z,2.13
2018-06-30T16:46:16.449Z,3.60
2018-06-30T16:48:45.616Z,4.57
2018-06-30T16:51:16.701Z,3.30
2018-06-30T16:53:46.444Z,3.37
2018-06-30T16:56:15.696Z,2.97
2018-06-30T16:58:44.893Z,6.47
2018-06-30T17:01:14.026Z,1.70
2018-06-30T17:03:43.204Z,3.83
2018-06-30T17:06:12.487Z,6.00
2018-06-30T17:08:41.632Z,3.50
2018-06-30T17:11:10.824Z,5.90
2018-06-30T17:13:39.998Z,3.80
2018-06-30T17:16:09.326Z,4.47
2018-06-30T17:18:39.279Z,2.80
2018-06-30T17:21:08.551Z,5.53
2018-06-30T17:23:37.749Z,6.03
2018-06-30T17:26:07.038Z,3.63
2018-06-30T17:28:36.152Z,4.37
2018-06-30T17:31:05.333Z,2.27
2018-06-30T17:33:34.597Z,3.57
2018-06-30T17:36:03.388Z,1.83
2018-06-30T17:38:32.508Z,2.23
2018-06-30T17:41:01.844Z,3.63
2018-06-30T17:43:31.101Z,3.40
2018-06-30T17:46:00.419Z,3.90
2018-06-30T17:48:29.601Z,4.93
2018-06-30T17:50:58.807Z,2.90
2018-06-30T17:53:28.008Z,1.77
2018-06-30T17:55:57.213Z,2.30
2018-06-30T17:58:26.544Z,2.13
2018-06-30T18:00:55.661Z,6.30
2018-06-30T18:03:25.812Z,3.87
2018-06-30T18:05:54.969Z,3.37
2018-06-30T18:08:24.149Z,3.53
2018-06-30T18:10:53.352Z,3.60
2018-06-30T18:13:22.515Z,3.73
2018-06-30T18:15:51.733Z,2.80
2018-06-30T18:18:20.920Z,4.63
2018-06-30T18:20:50.160Z,3.00
2018-06-30T18:23:19.462Z,2.83
2018-06-30T18:25:48.623Z,2.57
2018-06-30T18:28:17.760Z,1.47
2018-06-30T18:30:46.911Z,1.80
2018-06-30T18:33:16.031Z,2.93
2018-06-30T18:35:45.220Z,3.63
2018-06-30T18:38:14.332Z,4.20
2018-06-30T18:40:43.519Z,2.20
2018-06-30T18:43:12.763Z,5.53
2018-06-30T18:45:42.044Z,4.83
2018-06-30T18:48:11.237Z,2.30
2018-06-30T18:50:40.494Z,3.53
2018-06-30T18:53:09.677Z,3.00
2018-06-30T18:55:38.947Z,2.47
2018-06-30T18:58:08.152Z,3.57
2018-06-30T19:00:37.367Z,2.67
2018-06-30T19:03:06.963Z,3.23
2018-06-30T19:05:36.112Z,3.67
2018-06-30T19:08:05.359Z,2.57
2018-06-30T19:10:34.640Z,2.83
2018-06-30T19:13:03.954Z,3.77
2018-06-30T19:15:33.209Z,3.00
2018-06-30T19:18:02.433Z,4.57
2018-06-30T19:20:31.707Z,4.23
2018-06-30T19:23:01.469Z,3.13
2018-06-30T19:25:31.196Z,4.80
2018-06-30T19:28:00.408Z,2.80
2018-06-30T19:30:29.591Z,5.67
2018-06-30T19:32:59.118Z,4.23
2018-06-30T19:35:28.287Z,4.70
2018-06-30T19:37:57.429Z,3.07
2018-06-30T19:40:26.636Z,3.87
2018-06-30T19:42:55.772Z,2.97
2018-06-30T19:45:24.961Z,2.67
2018-06-30T19:47:54.104Z,4.00
2018-06-30T19:50:23.609Z,2.67
2018-06-30T19:52:52.791Z,3.20
2018-06-30T19:55:22.032Z,2.30
2018-06-30T19:57:51.220Z,2.23
2018-06-30T20:00:20.478Z,2.03
2018-06-30T20:02:49.623Z,4.07
2018-06-30T20:05:18.766Z,2.60
2018-06-30T20:07:54.972Z,3.57
2018-06-30T20:10:25.311Z,3.20
2018-06-30T20:12:54.524Z,3.37
2018-06-30T20:15:23.604Z,3.53
2018-06-30T20:17:52.800Z,3.10
2018-06-30T20:20:22.272Z,3.33
2018-06-30T20:22:51.429Z,5.27
2018-06-30T20:25:20.617Z,4.20
2018-06-30T20:27:49.821Z,3.57
2018-06-30T20:30:19.042Z,5.43
2018-06-30T20:32:48.176Z,4.37
2018-06-30T20:35:17.988Z,6.43
2018-06-30T20:37:47.233Z,3.87
2018-06-30T20:40:16.353Z,4.43
2018-06-30T20:42:45.508Z,2.93
2018-06-30T20:45:14.804Z,4.27
2018-06-30T20:47:43.938Z,4.00
2018-06-30T20:50:13.055Z,3.70
2018-06-30T20:52:41.829Z,7.10
2018-06-30T20:55:10.974Z,3.23
2018-06-30T20:57:40.816Z,5.13
2018-06-30T21:00:10.176Z,5.83
2018-06-30T21:02:39.287Z,4.10
2018-06-30T21:05:08.465Z,5.17
2018-06-30T21:07:37.599Z,5.43
2018-06-30T21:10:06.766Z,3.47
2018-06-30T21:12:35.931Z,8.20
2018-06-30T21:15:05.296Z,5.23
2018-06-30T21:17:34.527Z,6.07
2018-06-30T21:20:03.704Z,4.47
2018-06-30T21:22:32.910Z,4.20
2018-06-30T21:25:02.429Z,3.97
2018-06-30T21:27:31.565Z,2.60
2018-06-30T21:30:00.821Z,3.57
2018-06-30T21:32:29.988Z,3.07
2018-06-30T21:34:59.129Z,3.40
2018-06-30T21:37:28.330Z,6.90
2018-06-30T21:39:57.484Z,2.03
2018-06-30T21:42:26.652Z,2.80
2018-06-30T21:44:55.767Z,3.67
2018-06-30T21:47:24.937Z,2.80
2018-06-30T21:49:54.100Z,3.67
2018-06-30T21:52:22.951Z,3.07
2018-06-30T21:54:52.032Z,4.33
2018-06-30T21:57:21.274Z,4.13
2018-06-30T21:59:50.423Z,2.80
2018-06-30T22:02:19.561Z,3.97
2018-06-30T22:04:48.788Z,3.23
2018-06-30T22:07:17.922Z,6.77
2018-06-30T22:09:47.018Z,3.03
2018-06-30T22:12:16.196Z,6.27
2018-06-30T22:14:45.372Z,2.47
2018-06-30T22:17:14.633Z,2.50
2018-06-30T22:19:43.753Z,3.20
2018-06-30T22:22:12.900Z,4.23
2018-06-30T22:24:42.036Z,5.10
2018-06-30T22:27:11.232Z,3.97
2018-06-30T22:29:40.488Z,2.90
2018-06-30T22:32:09.608Z,3.97
2018-06-30T22:34:38.751Z,4.00
2018-06-30T22:37:08.018Z,5.03
2018-06-30T22:39:48.630Z,3.60
2018-06-30T22:42:17.761Z,3.93
2018-06-30T22:44:46.567Z,4.77
2018-06-30T22:47:15.681Z,5.07
2018-06-30T22:49:44.764Z,3.60
2018-06-30T22:52:13.872Z,3.57
2018-06-30T22:54:43.017Z,4.87
2018-06-30T22:57:11.825Z,5.77
2018-06-30T22:59:40.913Z,3.83
2018-06-30T23:02:10.021Z,2.87
2018-06-30T23:04:39.330Z,4.73
2018-06-30T23:07:08.500Z,5.57
2018-06-30T23:09:37.637Z,2.83
2018-06-30T23:12:06.821Z,4.63
2018-06-30T23:14:36.008Z,3.40
2018-06-30T23:17:05.418Z,5.30
2018-06-30T23:19:34.696Z,3.53
2018-06-30T23:22:03.563Z,4.30
2018-06-30T23:24:33.297Z,3.73
2018-06-30T23:27:02.423Z,5.03
2018-06-30T23:29:31.555Z,5.50
2018-06-30T23:32:00.810Z,2.97
2018-06-30T23:34:29.938Z,4.50
2018-06-30T23:36:59.112Z,7.20
2018-06-30T23:39:28.202Z,3.80
2018-06-30T23:41:57.339Z,2.87
2018-06-30T23:44:28.362Z,4.30
2018-06-30T23:46:57.457Z,2.73
2018-06-30T23:49:27.649Z,3.97
2018-06-30T23:51:59.349Z,5.07
2018-06-30T23:54:28.491Z,4.50
2018-06-30T23:56:57.664Z,5.10
2018-06-30T23:59:26.795Z,4.30
